createdAt,value
2022-11-10T00:01:32.242Z,100568.88
2022-11-10T00:03:58.591Z,100555.44
2022-11-10T00:06:24.847Z,100569.53
2022-11-10T00:08:51.053Z,100579.25
2022-11-10T00:11:17.289Z,100582.72
2022-11-10T00:13:43.495Z,100583.63
2022-11-10T00:16:09.690Z,100592.25
2022-11-10T00:18:35.892Z,100598.78
2022-11-10T00:21:08.395Z,100613.13
2022-11-10T00:23:34.601Z,100623.75
2022-11-10T00:26:00.792Z,100646.06
2022-11-10T00:28:27.010Z,100649.63
2022-11-10T00:30:53.217Z,100661.84
2022-11-10T00:33:19.808Z,100657.78
2022-11-10T00:35:46.283Z,100673.38
2022-11-10T00:38:12.499Z,100669.75
2022-11-10T00:40:38.705Z,100643.97
2022-11-10T00:43:04.916Z,100636.06
2022-11-10T00:45:31.128Z,100640.50
2022-11-10T00:47:57.341Z,100639.13
2022-11-10T00:50:23.586Z,100643.50
2022-11-10T00:52:49.796Z,100652.38
2022-11-10T00:55:15.992Z,100668.03
2022-11-10T00:57:42.199Z,100677.44
2022-11-10T01:00:08.765Z,100671.69
2022-11-10T01:02:34.978Z,100671.50
2022-11-10T01:05:01.190Z,100675.00
2022-11-10T01:07:27.407Z,100667.19
2022-11-10T01:09:53.609Z,100668.75
2022-11-10T01:12:19.830Z,100670.66
2022-11-10T01:14:47.314Z,100662.69
2022-11-10T01:17:13.522Z,100651.22
2022-11-10T01:19:41.351Z,100656.81
2022-11-10T01:22:07.563Z,100655.38
2022-11-10T01:24:33.772Z,100660.81
2022-11-10T01:26:59.984Z,100666.19
2022-11-10T01:29:26.188Z,100678.34
2022-11-10T01:31:52.398Z,100668.59
2022-11-10T01:34:18.601Z,100676.66
2022-11-10T01:36:44.804Z,100670.41
2022-11-10T01:39:11.010Z,100676.09
2022-11-10T01:41:37.205Z,100674.75
2022-11-10T01:44:32.989Z,100677.69
2022-11-10T01:46:59.197Z,100677.13
2022-11-10T01:49:25.819Z,100688.13
2022-11-10T01:51:51.980Z,100683.72
2022-11-10T01:54:19.418Z,100684.28
2022-11-10T01:56:47.374Z,100682.91
2022-11-10T01:59:15.108Z,100680.78
2022-11-10T02:01:41.321Z,100665.34
2022-11-10T02:04:08.385Z,100670.38
2022-11-10T02:06:36.019Z,100670.28
2022-11-10T02:09:02.244Z,100671.88
2022-11-10T02:11:28.454Z,100665.34
2022-11-10T02:13:54.660Z,100664.53
2022-11-10T02:16:21.082Z,100660.13
2022-11-10T02:18:47.726Z,100660.66
2022-11-10T02:21:15.994Z,100658.97
2022-11-10T02:23:48.310Z,100662.38
2022-11-10T02:26:14.509Z,100656.59
2022-11-10T02:28:40.717Z,100666.78
2022-11-10T02:31:06.995Z,100658.63
2022-11-10T02:33:33.208Z,100654.44
2022-11-10T02:35:59.429Z,100655.22
2022-11-10T02:38:25.641Z,100658.09
2022-11-10T02:40:51.847Z,100658.41
2022-11-10T02:43:18.282Z,100652.84
2022-11-10T02:45:44.618Z,100651.44
2022-11-10T02:48:10.997Z,100652.38
2022-11-10T02:50:37.206Z,100664.59
2022-11-10T02:53:03.491Z,100664.38
2022-11-10T02:55:29.693Z,100663.19
2022-11-10T02:57:55.940Z,100664.31
2022-11-10T03:00:22.157Z,100666.91
2022-11-10T03:02:48.363Z,100654.44
2022-11-10T03:05:14.585Z,100660.53
2022-11-10T03:07:40.803Z,100663.88
2022-11-10T03:10:07.244Z,100659.47
2022-11-10T03:12:33.451Z,100668.06
2022-11-10T03:14:59.672Z,100666.81
2022-11-10T03:17:25.869Z,100670.03
2022-11-10T03:19:52.084Z,100665.81
2022-11-10T03:22:18.679Z,100672.94
2022-11-10T03:24:44.880Z,100672.69
2022-11-10T03:27:11.086Z,100684.16
2022-11-10T03:29:37.295Z,100693.09
2022-11-10T03:32:03.515Z,100702.00
2022-11-10T03:34:31.935Z,100699.81
2022-11-10T03:36:58.300Z,100706.25
2022-11-10T03:39:24.514Z,100705.47
2022-11-10T03:41:50.718Z,100703.41
2022-11-10T03:44:16.927Z,100707.03
2022-11-10T03:46:43.659Z,100703.56
2022-11-10T03:49:09.909Z,100701.06
2022-11-10T03:51:36.113Z,100700.28
2022-11-10T03:54:02.337Z,100697.81
2022-11-10T03:56:28.545Z,100708.19
2022-11-10T03:58:54.762Z,100699.84
2022-11-10T04:01:21.028Z,100697.75
2022-11-10T04:03:51.313Z,100701.69
2022-11-10T04:06:17.970Z,100704.19
2022-11-10T04:08:44.182Z,100706.81
2022-11-10T04:11:10.376Z,100708.88
2022-11-10T04:13:36.584Z,100713.19
2022-11-10T04:16:02.803Z,100718.22
2022-11-10T04:18:29.056Z,100723.09
2022-11-10T04:20:58.880Z,100721.75
2022-11-10T04:23:26.077Z,100732.19
2022-11-10T04:25:52.928Z,100747.00
2022-11-10T04:28:19.134Z,100755.38
2022-11-10T04:30:45.337Z,100756.16
2022-11-10T04:33:11.529Z,100758.78
2022-11-10T04:35:37.741Z,100761.16
2022-11-10T04:38:03.937Z,100776.56
2022-11-10T04:40:30.144Z,100784.91
2022-11-10T04:42:56.340Z,100778.09
2022-11-10T04:45:22.546Z,100784.81
2022-11-10T04:47:48.751Z,100787.41
2022-11-10T04:50:15.148Z,100783.88
2022-11-10T04:52:41.346Z,100782.00
2022-11-10T04:55:07.758Z,100797.06
2022-11-10T04:57:33.955Z,100799.47
2022-11-10T05:00:00.158Z,100802.88
2022-11-10T05:02:26.390Z,100799.63
2022-11-10T05:04:52.611Z,100815.03
2022-11-10T05:07:18.813Z,100809.66
2022-11-10T05:09:45.018Z,100816.13
2022-11-10T05:12:11.234Z,100818.19
2022-11-10T05:14:37.453Z,100824.19
2022-11-10T05:17:03.651Z,100812.19
2022-11-10T05:19:29.868Z,100810.94
2022-11-10T05:21:56.065Z,100818.56
2022-11-10T05:24:22.265Z,100820.97
2022-11-10T05:26:48.474Z,100832.03
2022-11-10T05:29:14.764Z,100830.34
2022-11-10T05:31:41.060Z,100839.97
2022-11-10T05:34:07.298Z,100845.63
2022-11-10T05:36:33.525Z,100853.31
2022-11-10T05:38:59.739Z,100859.47
2022-11-10T05:41:25.978Z,100857.94
2022-11-10T05:43:52.219Z,100870.16
2022-11-10T05:46:18.419Z,100880.97
2022-11-10T05:48:44.671Z,100880.38
2022-11-10T05:51:10.945Z,100874.16
2022-11-10T05:53:37.162Z,100879.59
2022-11-10T05:56:03.373Z,100891.94
2022-11-10T05:58:29.570Z,100899.19
2022-11-10T06:00:55.776Z,100903.91
2022-11-10T06:03:22.461Z,100904.72
2022-11-10T06:05:48.919Z,100916.16
2022-11-10T06:08:15.146Z,100923.84
2022-11-10T06:10:41.339Z,100921.25
2022-11-10T06:13:07.549Z,100930.19
2022-11-10T06:15:33.763Z,100937.19
2022-11-10T06:17:59.964Z,100932.69
2022-11-10T06:20:26.189Z,100942.94
2022-11-10T06:22:59.159Z,100945.66
2022-11-10T06:25:25.446Z,100946.28
2022-11-10T06:27:51.655Z,100954.69
2022-11-10T06:30:17.891Z,100953.78
2022-11-10T06:32:44.092Z,100956.28
2022-11-10T06:35:10.442Z,100956.50
2022-11-10T06:37:36.771Z,100959.28
2022-11-10T06:40:03.017Z,100963.16
2022-11-10T06:42:29.221Z,100986.13
2022-11-10T06:44:55.448Z,100987.38
2022-11-10T06:47:21.643Z,100977.97
2022-11-10T06:49:47.862Z,100986.88
2022-11-10T06:52:14.060Z,100989.69
2022-11-10T06:54:40.273Z,100982.44
2022-11-10T06:57:06.498Z,100989.81
2022-11-10T06:59:32.716Z,100996.78
2022-11-10T07:01:59.177Z,101000.72
2022-11-10T07:04:25.422Z,101002.00
2022-11-10T07:06:51.663Z,101009.59
2022-11-10T07:09:17.940Z,101008.16
2022-11-10T07:11:44.146Z,101008.69
2022-11-10T07:14:10.378Z,101008.03
2022-11-10T07:16:36.576Z,101014.84
2022-11-10T07:19:02.852Z,101012.25
2022-11-10T07:21:29.054Z,101013.16
2022-11-10T07:23:55.271Z,101021.69
2022-11-10T07:26:21.477Z,101020.03
2022-11-10T07:28:47.684Z,101023.75
2022-11-10T07:31:13.879Z,101024.91
2022-11-10T07:33:40.149Z,101022.50
2022-11-10T07:36:06.372Z,101028.50
2022-11-10T07:38:32.586Z,101024.91
2022-11-10T07:40:58.793Z,101038.72
2022-11-10T07:43:25.284Z,101045.53
2022-11-10T07:45:52.108Z,101045.34
2022-11-10T07:48:18.323Z,101053.00
2022-11-10T07:50:44.925Z,101059.16
2022-11-10T07:53:14.844Z,101062.19
2022-11-10T07:55:41.538Z,101060.28
2022-11-10T07:58:07.760Z,101078.19
2022-11-10T08:00:34.343Z,101071.38
2022-11-10T08:03:01.337Z,101073.03
2022-11-10T08:05:27.546Z,101072.00
2022-11-10T08:07:53.862Z,101066.56
2022-11-10T08:10:20.126Z,101082.34
2022-11-10T08:12:46.333Z,101074.41
2022-11-10T08:15:12.573Z,101068.63
2022-11-10T08:17:38.787Z,101073.88
2022-11-10T08:20:05.238Z,101077.53
2022-11-10T08:22:31.450Z,101082.13
2022-11-10T08:24:57.680Z,101085.78
2022-11-10T08:27:23.893Z,101080.78
2022-11-10T08:29:50.110Z,101086.56
2022-11-10T08:32:16.321Z,101086.56
2022-11-10T08:34:42.549Z,101090.75
2022-11-10T08:37:08.757Z,101095.25
2022-11-10T08:39:39.300Z,101105.19
2022-11-10T08:42:05.805Z,101116.63
2022-11-10T08:44:32.021Z,101104.25
2022-11-10T08:46:58.225Z,101104.16
2022-11-10T08:49:24.434Z,101103.72
2022-11-10T08:51:50.641Z,101110.25
2022-11-10T08:54:16.851Z,101117.19
2022-11-10T08:56:43.064Z,101112.44
2022-11-10T08:59:09.277Z,101142.63
2022-11-10T09:01:35.503Z,101148.44
2022-11-10T09:04:01.723Z,101156.94
2022-11-10T09:06:27.920Z,101160.66
2022-11-10T09:08:54.139Z,101164.06
2022-11-10T09:11:20.349Z,101166.66
2022-11-10T09:13:46.555Z,101167.13
2022-11-10T09:16:12.752Z,101176.84
2022-11-10T09:18:38.956Z,101174.31
2022-11-10T09:21:05.190Z,101172.59
2022-11-10T09:23:31.393Z,101181.66
2022-11-10T09:25:57.600Z,101183.91
2022-11-10T09:28:23.893Z,101189.19
2022-11-10T09:30:50.504Z,101202.22
2022-11-10T09:33:16.816Z,101202.00
2022-11-10T09:35:43.065Z,101206.41
2022-11-10T09:38:09.281Z,101209.88
2022-11-10T09:40:42.906Z,101216.41
2022-11-10T09:43:13.043Z,101208.84
2022-11-10T09:45:40.418Z,101217.22
2022-11-10T09:48:07.483Z,101214.47
2022-11-10T09:50:36.770Z,101222.91
2022-11-10T09:53:03.022Z,101220.22
2022-11-10T09:55:46.484Z,101243.47
2022-11-10T09:58:12.891Z,101241.66
2022-11-10T10:00:39.112Z,101267.38
2022-11-10T10:05:40.930Z,101273.78
2022-11-10T10:08:07.711Z,101276.91
2022-11-10T10:10:42.383Z,101259.03
2022-11-10T10:13:08.531Z,101248.53
2022-11-10T10:15:43.628Z,101264.41
2022-11-10T10:18:12.890Z,101275.75
2022-11-10T10:20:57.589Z,101285.84
2022-11-10T10:24:07.171Z,101293.47
2022-11-10T10:26:32.531Z,101311.63
2022-11-10T10:28:59.919Z,101306.63
2022-11-10T10:31:26.858Z,101297.91
2022-11-10T10:33:53.110Z,101295.72
2022-11-10T10:36:20.074Z,101299.38
2022-11-10T10:38:46.357Z,101312.22
2022-11-10T10:41:24.003Z,101318.13
2022-11-10T10:43:51.181Z,101323.22
2022-11-10T10:46:17.392Z,101308.53
2022-11-10T10:48:43.592Z,101309.81
2022-11-10T10:51:09.812Z,101309.41
2022-11-10T10:53:45.922Z,101316.25
2022-11-10T10:56:19.086Z,101311.28
2022-11-10T10:58:55.237Z,101328.13
2022-11-10T11:01:39.726Z,101338.25
2022-11-10T11:04:06.550Z,101338.78
2022-11-10T11:06:33.211Z,101342.56
2022-11-10T11:09:18.722Z,101354.78
2022-11-10T11:11:45.698Z,101385.38
2022-11-10T11:14:14.634Z,101382.84
2022-11-10T11:16:51.021Z,101375.44
2022-11-10T11:19:17.217Z,101360.38
2022-11-10T11:21:55.639Z,101341.47
2022-11-10T11:24:27.514Z,101331.88
2022-11-10T11:27:04.243Z,101314.25
2022-11-10T11:29:34.569Z,101310.59
2022-11-10T11:32:08.010Z,101292.53
2022-11-10T11:34:47.459Z,101298.06
2022-11-10T11:37:20.205Z,101317.47
2022-11-10T11:39:52.413Z,101306.28
2022-11-10T11:42:18.578Z,101306.03
2022-11-10T11:44:48.674Z,101300.34
2022-11-10T11:47:28.998Z,101289.13
2022-11-10T11:50:08.433Z,101307.03
2022-11-10T11:52:40.157Z,101304.03
2022-11-10T11:55:11.774Z,101331.25
2022-11-10T11:58:07.483Z,101350.63
2022-11-10T12:00:37.216Z,101348.19
2022-11-10T12:03:03.467Z,101365.00
2022-11-10T12:05:41.615Z,101355.38
2022-11-10T12:08:26.973Z,101372.00
2022-11-10T12:11:06.246Z,101366.63
2022-11-10T12:13:36.208Z,101381.47
2022-11-10T12:16:19.805Z,101409.69
2022-11-10T12:18:49.730Z,101400.25
2022-11-10T12:21:22.037Z,101406.34
2022-11-10T12:24:10.269Z,101400.31
2022-11-10T12:26:48.996Z,101393.97
2022-11-10T12:29:34.107Z,101382.34
2022-11-10T12:32:05.049Z,101379.31
2022-11-10T12:34:36.788Z,101370.19
2022-11-10T12:37:03.470Z,101366.28
2022-11-10T12:39:44.967Z,101364.69
2022-11-10T12:42:12.708Z,101363.19
2022-11-10T12:44:57.631Z,101354.59
2022-11-10T12:47:24.996Z,101375.94
2022-11-10T12:50:08.361Z,101399.34
2022-11-10T12:52:35.736Z,101381.59
2022-11-10T12:55:01.946Z,101339.94
2022-11-10T12:57:28.154Z,101319.69
2022-11-10T12:59:55.438Z,101275.78
2022-11-10T13:02:27.697Z,101288.16
2022-11-10T13:05:10.518Z,101283.09
2022-11-10T13:07:36.738Z,101280.63
2022-11-10T13:10:18.313Z,101275.03
2022-11-10T13:12:59.667Z,101286.78
2022-11-10T13:15:35.164Z,101312.38
2022-11-10T13:18:01.372Z,101344.25
2022-11-10T13:20:39.478Z,101353.94
2022-11-10T13:23:21.591Z,101347.53
2022-11-10T13:25:56.857Z,101335.50
2022-11-10T13:28:41.641Z,101296.50
2022-11-10T13:31:26.468Z,101293.50
2022-11-10T13:34:07.601Z,101322.31
2022-11-10T13:36:47.216Z,101316.78
2022-11-10T13:39:21.967Z,101320.91
2022-11-10T13:42:11.519Z,101352.47
2022-11-10T13:44:38.351Z,101392.16
2022-11-10T13:47:07.311Z,101417.06
2022-11-10T13:49:52.356Z,101419.44
2022-11-10T13:52:33.576Z,101425.41
2022-11-10T13:55:02.857Z,101447.81
2022-11-10T13:57:30.107Z,101458.31
2022-11-10T13:59:57.449Z,101467.13
2022-11-10T14:02:32.768Z,101475.53
2022-11-10T14:04:59.414Z,101498.56
2022-11-10T14:07:25.624Z,101505.16
2022-11-10T14:09:51.850Z,101508.72
2022-11-10T14:12:36.911Z,101526.94
2022-11-10T14:15:04.977Z,101559.94
2022-11-10T14:17:32.705Z,101557.94
2022-11-10T14:19:58.925Z,101557.69
2022-11-10T14:22:28.173Z,101557.88
2022-11-10T14:24:58.320Z,101554.22
2022-11-10T14:27:26.122Z,101544.13
2022-11-10T14:30:06.016Z,101539.69
2022-11-10T14:32:32.243Z,101551.66
2022-11-10T14:34:58.465Z,101571.34
2022-11-10T14:37:25.829Z,101573.72
2022-11-10T14:39:52.834Z,101565.88
2022-11-10T14:42:20.919Z,101574.22
2022-11-10T14:44:47.144Z,101592.88
2022-11-10T14:47:22.595Z,101590.97
2022-11-10T14:50:02.367Z,101594.16
2022-11-10T14:52:28.585Z,101588.56
2022-11-10T14:54:54.789Z,101591.38
2022-11-10T14:57:20.996Z,101583.66
2022-11-10T14:59:47.200Z,101602.22
2022-11-10T15:02:14.350Z,101604.72
2022-11-10T15:04:40.572Z,101612.81
2022-11-10T15:07:06.835Z,101610.44
2022-11-10T15:09:33.161Z,101610.88
2022-11-10T15:12:02.329Z,101616.03
2022-11-10T15:14:34.750Z,101625.69
2022-11-10T15:17:01.424Z,101625.25
2022-11-10T15:19:31.562Z,101622.94
2022-11-10T15:22:04.756Z,101618.88
2022-11-10T15:24:30.966Z,101604.97
2022-11-10T15:26:57.176Z,101607.31
2022-11-10T15:29:23.391Z,101609.84
2022-11-10T15:31:50.170Z,101620.03
2022-11-10T15:34:38.712Z,101641.06
2022-11-10T15:37:17.142Z,101643.22
2022-11-10T15:39:43.429Z,101626.16
2022-11-10T15:42:13.905Z,101618.88
2022-11-10T15:44:40.110Z,101619.56
2022-11-10T15:47:06.303Z,101601.22
2022-11-10T15:49:34.453Z,101590.16
2022-11-10T15:52:03.010Z,101578.78
2022-11-10T15:54:29.653Z,101602.56
2022-11-10T15:56:55.874Z,101605.19
2022-11-10T15:59:22.084Z,101614.75
2022-11-10T16:01:48.480Z,101616.69
2022-11-10T16:04:14.724Z,101632.50
2022-11-10T16:06:41.043Z,101635.91
2022-11-10T16:09:07.335Z,101637.31
2022-11-10T16:11:36.578Z,101632.88
2022-11-10T16:14:03.105Z,101638.34
2022-11-10T16:16:29.320Z,101636.41
2022-11-10T16:18:55.533Z,101641.75
2022-11-10T16:21:22.731Z,101640.97
2022-11-10T16:23:49.050Z,101639.81
2022-11-10T16:26:15.864Z,101657.47
2022-11-10T16:28:42.146Z,101647.09
2022-11-10T16:31:08.600Z,101639.72
2022-11-10T16:33:34.801Z,101641.41
2022-11-10T16:36:01.014Z,101622.34
2022-11-10T16:38:27.934Z,101605.94
2022-11-10T16:40:54.902Z,101599.22
2022-11-10T16:43:21.211Z,101578.97
2022-11-10T16:45:47.589Z,101573.81
2022-11-10T16:48:18.113Z,101556.72
2022-11-10T16:50:44.534Z,101548.19
2022-11-10T16:53:13.183Z,101504.66
2022-11-10T16:55:39.393Z,101504.56
2022-11-10T16:58:05.600Z,101522.19
2022-11-10T17:00:32.147Z,101511.63
2022-11-10T17:03:01.332Z,101533.38
2022-11-10T17:05:27.653Z,101528.13
2022-11-10T17:07:53.929Z,101525.78
2022-11-10T17:10:20.368Z,101525.06
2022-11-10T17:12:46.580Z,101513.53
2022-11-10T17:15:13.119Z,101501.00
2022-11-10T17:17:39.462Z,101509.56
2022-11-10T17:20:06.195Z,101509.56
2022-11-10T17:22:33.138Z,101521.88
2022-11-10T17:24:59.362Z,101534.66
2022-11-10T17:27:25.570Z,101539.66
2022-11-10T17:29:51.957Z,101542.28
2022-11-10T17:32:24.234Z,101541.50
2022-11-10T17:34:58.339Z,101541.81
2022-11-10T17:37:24.555Z,101538.72
2022-11-10T17:39:50.792Z,101523.00
2022-11-10T17:42:16.996Z,101518.88
2022-11-10T17:44:43.211Z,101520.53
2022-11-10T17:47:09.411Z,101540.31
2022-11-10T17:49:35.615Z,101554.44
2022-11-10T17:52:01.805Z,101529.03
2022-11-10T17:54:28.018Z,101534.81
2022-11-10T17:56:54.237Z,101530.19
2022-11-10T17:59:20.882Z,101535.84
2022-11-10T18:01:47.337Z,101539.03
2022-11-10T18:04:14.677Z,101559.91
2022-11-10T18:06:40.919Z,101570.16
2022-11-10T18:09:07.144Z,101550.41
2022-11-10T18:11:33.362Z,101526.59
2022-11-10T18:13:59.571Z,101505.88
2022-11-10T18:16:25.853Z,101501.03
2022-11-10T18:18:52.064Z,101482.13
2022-11-10T18:21:18.280Z,101485.69
2022-11-10T18:23:44.480Z,101466.25
2022-11-10T18:26:10.777Z,101452.69
2022-11-10T18:28:36.994Z,101444.56
2022-11-10T18:31:10.205Z,101419.25
2022-11-10T18:33:36.412Z,101426.75
2022-11-10T18:36:02.624Z,101407.22
2022-11-10T18:38:28.835Z,101405.72
2022-11-10T18:40:55.043Z,101391.25
2022-11-10T18:43:21.617Z,101402.13
2022-11-10T18:45:51.685Z,101416.84
2022-11-10T18:48:17.887Z,101422.88
2022-11-10T18:50:44.099Z,101431.88
2022-11-10T18:53:10.316Z,101441.56
2022-11-10T18:55:36.930Z,101460.31
2022-11-10T18:58:04.157Z,101468.56
2022-11-10T19:00:30.378Z,101460.97
2022-11-10T19:02:56.572Z,101472.63
2022-11-10T19:05:22.781Z,101504.16
2022-11-10T19:07:48.989Z,101503.81
2022-11-10T19:10:15.248Z,101509.19
2022-11-10T19:12:41.452Z,101488.41
2022-11-10T19:15:07.661Z,101505.53
2022-11-10T19:17:33.877Z,101490.25
2022-11-10T19:20:00.103Z,101516.16
2022-11-10T19:22:26.333Z,101518.78
2022-11-10T19:25:09.070Z,101533.38
2022-11-10T19:27:35.644Z,101546.91
2022-11-10T19:30:01.877Z,101545.31
2022-11-10T19:32:28.895Z,101547.50
2022-11-10T19:34:55.106Z,101539.19
2022-11-10T19:37:21.317Z,101519.81
2022-11-10T19:39:47.518Z,101486.44
2022-11-10T19:42:13.786Z,101476.03
2022-11-10T19:44:39.988Z,101512.69
2022-11-10T19:47:06.196Z,101518.00
2022-11-10T19:49:34.852Z,101496.78
2022-11-10T19:52:01.063Z,101497.56
2022-11-10T19:54:27.265Z,101493.94
2022-11-10T19:56:53.492Z,101491.06
2022-11-10T19:59:19.689Z,101488.22
2022-11-10T20:01:45.956Z,101481.28
2022-11-10T20:04:12.195Z,101493.34
2022-11-10T20:06:38.454Z,101495.41
2022-11-10T20:09:04.703Z,101490.97
2022-11-10T20:11:30.939Z,101508.00
2022-11-10T20:13:57.869Z,101545.19
2022-11-10T20:16:24.084Z,101565.84
2022-11-10T20:18:50.287Z,101589.19
2022-11-10T20:21:16.844Z,101585.06
2022-11-10T20:23:43.122Z,101584.44
2022-11-10T20:26:10.554Z,101617.00
2022-11-10T20:28:36.797Z,101614.28
2022-11-10T20:31:03.284Z,101630.16
2022-11-10T20:33:29.616Z,101643.25
2022-11-10T20:35:55.824Z,101663.75
2022-11-10T20:38:22.030Z,101674.00
2022-11-10T20:40:48.249Z,101664.88
2022-11-10T20:43:14.450Z,101665.56
2022-11-10T20:45:40.753Z,101641.63
2022-11-10T20:48:06.962Z,101664.53
2022-11-10T20:50:33.182Z,101671.38
2022-11-10T20:52:59.394Z,101687.25
2022-11-10T20:55:44.021Z,101706.91
2022-11-10T20:58:11.783Z,101729.22
2022-11-10T21:00:41.511Z,101732.16
2022-11-10T21:03:07.720Z,101721.34
2022-11-10T21:05:33.955Z,101735.72
2022-11-10T21:08:00.157Z,101730.50
2022-11-10T21:10:26.370Z,101735.47
2022-11-10T21:12:52.572Z,101746.44
2022-11-10T21:15:19.014Z,101745.84
2022-11-10T21:17:45.237Z,101750.75
2022-11-10T21:20:11.565Z,101764.91
2022-11-10T21:22:37.781Z,101758.84
2022-11-10T21:25:04.560Z,101761.78
2022-11-10T21:27:30.764Z,101758.03
2022-11-10T21:29:57.065Z,101728.88
2022-11-10T21:32:23.268Z,101734.78
2022-11-10T21:34:49.474Z,101739.16
2022-11-10T21:37:15.690Z,101717.25
2022-11-10T21:39:41.898Z,101701.97
2022-11-10T21:42:08.109Z,101707.88
2022-11-10T21:44:34.299Z,101687.03
2022-11-10T21:47:00.513Z,101702.06
2022-11-10T21:49:26.717Z,101717.38
2022-11-10T21:51:52.945Z,101707.44
2022-11-10T21:54:19.144Z,101712.44
2022-11-10T21:56:45.347Z,101691.34
2022-11-10T21:59:11.557Z,101688.72
2022-11-10T22:01:37.833Z,101666.94
2022-11-10T22:04:04.076Z,101648.34
2022-11-10T22:06:30.294Z,101643.34
2022-11-10T22:08:56.495Z,101630.34
2022-11-10T22:11:22.713Z,101604.91
2022-11-10T22:13:48.957Z,101623.97
2022-11-10T22:16:22.233Z,101594.19
2022-11-10T22:18:48.433Z,101594.44
2022-11-10T22:21:14.632Z,101593.63
2022-11-10T22:23:40.831Z,101602.56
2022-11-10T22:26:07.061Z,101598.41
2022-11-10T22:28:33.272Z,101593.41
2022-11-10T22:31:01.358Z,101583.72
2022-11-10T22:33:27.569Z,101592.72
2022-11-10T22:35:56.855Z,101565.59
2022-11-10T22:38:23.332Z,101583.16
2022-11-10T22:40:49.530Z,101565.34
2022-11-10T22:43:15.752Z,101557.25
2022-11-10T22:45:44.122Z,101538.16
2022-11-10T22:48:10.338Z,101516.72
2022-11-10T22:50:36.549Z,101504.25
2022-11-10T22:53:02.767Z,101540.16
2022-11-10T22:55:29.156Z,101500.75
2022-11-10T22:57:55.375Z,101475.97
2022-11-10T23:00:21.604Z,101496.38
2022-11-10T23:02:47.813Z,101524.56
2022-11-10T23:05:14.041Z,101555.00
2022-11-10T23:07:40.277Z,101542.25
2022-11-10T23:10:06.730Z,101519.97
2022-11-10T23:12:32.932Z,101527.75
2022-11-10T23:14:59.129Z,101512.34
2022-11-10T23:17:25.341Z,101515.31
2022-11-10T23:19:51.540Z,101514.56
2022-11-10T23:22:17.748Z,101543.16
2022-11-10T23:24:43.952Z,101537.66
2022-11-10T23:27:10.166Z,101542.38
2022-11-10T23:29:36.365Z,101558.81
2022-11-10T23:32:02.581Z,101562.56
2022-11-10T23:34:28.815Z,101574.88
2022-11-10T23:36:55.034Z,101545.91
2022-11-10T23:39:21.267Z,101527.97
2022-11-10T23:41:47.854Z,101509.06
2022-11-10T23:44:14.075Z,101501.19
2022-11-10T23:46:43.421Z,101507.72
2022-11-10T23:49:11.188Z,101510.59
2022-11-10T23:51:37.418Z,101500.91
2022-11-10T23:54:06.951Z,101497.97
2022-11-10T23:56:33.304Z,101520.41
2022-11-10T23:58:59.505Z,101547.78
